Polar Ranger — WDC8652 — position and weather

sailwx.info

Track history (hours):
 
Tides and Currents Weather Stations Pressure Air Temp Water Temp Dewpoint Dewpoint Depression Visibility Wind Speed Wind Dir Waves Ship Positions

Polar Ranger

Owner: Dunlap Towing Co., LaConner, WA. More information available from US FCC via Universal Licensing System and Coast Guard Vessel Documentation Center.

Last reported at 2014-Dec-13 15:14 UTC. Time now 2014-Dec-22 19:55 UTC.
Position N 45°52' W 125°14'.
Warning: this ship's position is 9 days out of date.

Type: Tow > 200 m length. MMSI: 367090860.

Date/timePositionNaut miles runAvg speedWind from/ knotsBaromVisibWave heightAir tempDewpointWater temp
2014-Dec-13 15:14N 45°52' W 125°14'7 9.6
2014-Dec-13 14:27N 45°60' W 125°15'9 9.7
2014-Dec-13 13:29N 46°09' W 125°16'126 7.7
2014-Dec-12 21:10N 48°15' W 125°05'4 6.3
2014-Dec-12 20:29N 48°19' W 125°02'6 6.0
2014-Dec-12 19:33N 48°24' W 124°59'6 6.1
2014-Dec-12 18:33N 48°26' W 124°50'7 7.0
2014-Dec-12 17:34N 48°25' W 124°40'8 8.2
2014-Dec-12 16:33N 48°22' W 124°29'8 7.7
2014-Dec-12 15:31N 48°18' W 124°18'5 4.7
2014-Dec-12 14:32N 48°16' W 124°11'4 3.8
2014-Dec-12 13:21N 48°15' W 124°05'2 2.9
2014-Dec-12 12:32N 48°14' W 124°02'2 2.3
2014-Dec-12 11:33N 48°13' W 123°59'3 3.0
2014-Dec-12 10:33N 48°12' W 123°55'3 3.1
2014-Dec-12 09:33N 48°12' W 123°50'3 3.1
2014-Dec-12 08:33N 48°12' W 123°45'3 3.1
2014-Dec-12 07:33N 48°11' W 123°41'1 1.0
2014-Dec-12 06:30N 48°12' W 123°42'7 3.1
2014-Dec-12 04:23N 48°13' W 123°52'3 3.1
2014-Dec-12 03:33N 48°13' W 123°55'2 1.7
2014-Dec-12 02:31N 48°12' W 123°53'3 3.4
2014-Dec-12 01:34N 48°12' W 123°49'4 4.1
2014-Dec-12 00:33N 48°12' W 123°42'4 3.7
2014-Dec-11 23:33N 48°12' W 123°37'1 1.1
2014-Dec-11 22:32N 48°12' W 123°38'2 2.4
2014-Dec-11 21:32N 48°12' W 123°42'1 1.4
2014-Dec-11 20:33N 48°12' W 123°44'2 1.5
2014-Dec-11 19:33N 48°12' W 123°46'2 1.8
2014-Dec-11 18:33N 48°13' W 123°49'2 1.8
2014-Dec-11 17:33N 48°13' W 123°51'3 3.1
2014-Dec-11 16:25N 48°13' W 123°56'2 2.3
2014-Dec-11 15:33N 48°12' W 123°54'2 2.5
2014-Dec-11 14:33N 48°12' W 123°50'2 1.9
2014-Dec-11 13:33N 48°12' W 123°47'1 0.8
2014-Dec-11 12:33N 48°12' W 123°46'1 1.2
2014-Dec-11 11:33N 48°12' W 123°44'1 1.4
2014-Dec-11 10:34N 48°11' W 123°42'2 1.9
2014-Dec-11 09:33N 48°12' W 123°39'2 2.3
2014-Dec-11 08:31N 48°12' W 123°36'2 2.2
2014-Dec-11 07:33N 48°13' W 123°39'3 2.9
2014-Dec-11 06:31N 48°13' W 123°44'3 3.3
2014-Dec-11 05:33N 48°13' W 123°48'4 3.6
2014-Dec-11 04:33N 48°12' W 123°54'2 1.5
2014-Dec-11 03:34N 48°12' W 123°56'2 2.5
2014-Dec-11 02:33N 48°12' W 123°52'2 2.1
2014-Dec-11 01:34N 48°12' W 123°49'2 2.3
2014-Dec-11 00:34N 48°12' W 123°45'3 2.8
2014-Dec-10 23:33N 48°11' W 123°41'4 3.6
2014-Dec-10 22:33N 48°11' W 123°36'4 4.0
2014-Dec-10 21:34N 48°11' W 123°30'4 4.2
2014-Dec-10 20:33N 48°12' W 123°24'5 4.8
2014-Dec-10 19:33N 48°12' W 123°16'5 4.6
2014-Dec-10 18:34N 48°13' W 123°10'8 7.8
2014-Dec-10 17:33N 48°12' W 122°58'9 8.3
2014-Dec-10 16:32N 48°11' W 122°45'7 6.8
2014-Dec-10 15:28N 48°05' W 122°38'2 1.6
2014-Dec-10 14:33N 48°04' W 122°38'2 2.2
2014-Dec-10 13:32N 48°01' W 122°37'2 2.1
2014-Dec-10 12:34N 47°60' W 122°36'2 2.2
2014-Dec-10 11:34N 47°58' W 122°34'2 2.3
2014-Dec-10 10:34N 47°57' W 122°31'4 4.2
2014-Dec-10 09:34N 47°53' W 122°28'5 4.9
2014-Dec-10 08:33N 47°48' W 122°26'5 5.2
2014-Dec-10 07:34N 47°43' W 122°26'6 5.6
2014-Dec-10 06:33N 47°37' W 122°25'3 2.6
2014-Dec-10 05:33N 47°36' W 122°22'0 0.0
2014-Dec-10 04:33N 47°36' W 122°22'1 0.7
2014-Dec-10 03:33N 47°35' W 122°21'0 0.0
2014-Dec-10 02:33N 47°35' W 122°21'0 0.0
2014-Dec-10 01:33N 47°35' W 122°21'0 0.0
2014-Dec-10 00:33N 47°35' W 122°21'0 0.0
2014-Dec-09 23:33N 47°35' W 122°21'1010.3
2014-Dec-09 22:34N 47°45' W 122°25'1212.1
2014-Dec-09 21:33N 47°57' W 122°20'5 4.9
2014-Dec-09 20:33N 47°59' W 122°13'0 0.0
2014-Dec-09 19:32N 47°59' W 122°13'0 0.0
2014-Dec-09 18:33N 47°59' W 122°13'0 0.0
2014-Dec-09 17:33N 47°59' W 122°13'  
Track history (hours):
 
Tides and Currents Weather Stations Pressure Air Temp Water Temp Dewpoint Dewpoint Depression Visibility Wind Speed Wind Dir Waves Ship Positions

Polar Ranger

Owner: Dunlap Towing Co., LaConner, WA. More information available from US FCC via Universal Licensing System and Coast Guard Vessel Documentation Center.

Last reported at 2014-Dec-13 15:14 UTC. Time now 2014-Dec-22 19:55 UTC.
Position N 45°52' W 125°14'.
Warning: this ship's position is 9 days out of date.

Type: Tow > 200 m length. MMSI: 367090860.

Date/timePositionNaut miles runAvg speedWind from/ knotsBaromVisibWave heightAir tempDewpointWater temp
2014-Dec-13 15:14N 45°52' W 125°14'7 9.6
2014-Dec-13 14:27N 45°60' W 125°15'9 9.7
2014-Dec-13 13:29N 46°09' W 125°16'126 7.7
2014-Dec-12 21:10N 48°15' W 125°05'4 6.3
2014-Dec-12 20:29N 48°19' W 125°02'6 6.0
2014-Dec-12 19:33N 48°24' W 124°59'6 6.1
2014-Dec-12 18:33N 48°26' W 124°50'7 7.0
2014-Dec-12 17:34N 48°25' W 124°40'8 8.2
2014-Dec-12 16:33N 48°22' W 124°29'8 7.7
2014-Dec-12 15:31N 48°18' W 124°18'5 4.7
2014-Dec-12 14:32N 48°16' W 124°11'4 3.8
2014-Dec-12 13:21N 48°15' W 124°05'2 2.9
2014-Dec-12 12:32N 48°14' W 124°02'2 2.3
2014-Dec-12 11:33N 48°13' W 123°59'3 3.0
2014-Dec-12 10:33N 48°12' W 123°55'3 3.1
2014-Dec-12 09:33N 48°12' W 123°50'3 3.1
2014-Dec-12 08:33N 48°12' W 123°45'3 3.1
2014-Dec-12 07:33N 48°11' W 123°41'1 1.0
2014-Dec-12 06:30N 48°12' W 123°42'7 3.1
2014-Dec-12 04:23N 48°13' W 123°52'3 3.1
2014-Dec-12 03:33N 48°13' W 123°55'2 1.7
2014-Dec-12 02:31N 48°12' W 123°53'3 3.4
2014-Dec-12 01:34N 48°12' W 123°49'4 4.1
2014-Dec-12 00:33N 48°12' W 123°42'4 3.7
2014-Dec-11 23:33N 48°12' W 123°37'1 1.1
2014-Dec-11 22:32N 48°12' W 123°38'2 2.4
2014-Dec-11 21:32N 48°12' W 123°42'1 1.4
2014-Dec-11 20:33N 48°12' W 123°44'2 1.5
2014-Dec-11 19:33N 48°12' W 123°46'2 1.8
2014-Dec-11 18:33N 48°13' W 123°49'2 1.8
2014-Dec-11 17:33N 48°13' W 123°51'3 3.1
2014-Dec-11 16:25N 48°13' W 123°56'2 2.3
2014-Dec-11 15:33N 48°12' W 123°54'2 2.5
2014-Dec-11 14:33N 48°12' W 123°50'2 1.9
2014-Dec-11 13:33N 48°12' W 123°47'1 0.8
2014-Dec-11 12:33N 48°12' W 123°46'1 1.2
2014-Dec-11 11:33N 48°12' W 123°44'1 1.4
2014-Dec-11 10:34N 48°11' W 123°42'2 1.9
2014-Dec-11 09:33N 48°12' W 123°39'2 2.3
2014-Dec-11 08:31N 48°12' W 123°36'2 2.2
2014-Dec-11 07:33N 48°13' W 123°39'3 2.9
2014-Dec-11 06:31N 48°13' W 123°44'3 3.3
2014-Dec-11 05:33N 48°13' W 123°48'4 3.6
2014-Dec-11 04:33N 48°12' W 123°54'2 1.5
2014-Dec-11 03:34N 48°12' W 123°56'2 2.5
2014-Dec-11 02:33N 48°12' W 123°52'2 2.1
2014-Dec-11 01:34N 48°12' W 123°49'2 2.3
2014-Dec-11 00:34N 48°12' W 123°45'3 2.8
2014-Dec-10 23:33N 48°11' W 123°41'4 3.6
2014-Dec-10 22:33N 48°11' W 123°36'4 4.0
2014-Dec-10 21:34N 48°11' W 123°30'4 4.2
2014-Dec-10 20:33N 48°12' W 123°24'5 4.8
2014-Dec-10 19:33N 48°12' W 123°16'5 4.6
2014-Dec-10 18:34N 48°13' W 123°10'8 7.8
2014-Dec-10 17:33N 48°12' W 122°58'9 8.3
2014-Dec-10 16:32N 48°11' W 122°45'7 6.8
2014-Dec-10 15:28N 48°05' W 122°38'2 1.6
2014-Dec-10 14:33N 48°04' W 122°38'2 2.2
2014-Dec-10 13:32N 48°01' W 122°37'2 2.1
2014-Dec-10 12:34N 47°60' W 122°36'2 2.2
2014-Dec-10 11:34N 47°58' W 122°34'2 2.3
2014-Dec-10 10:34N 47°57' W 122°31'4 4.2
2014-Dec-10 09:34N 47°53' W 122°28'5 4.9
2014-Dec-10 08:33N 47°48' W 122°26'5 5.2
2014-Dec-10 07:34N 47°43' W 122°26'6 5.6
2014-Dec-10 06:33N 47°37' W 122°25'3 2.6
2014-Dec-10 05:33N 47°36' W 122°22'0 0.0
2014-Dec-10 04:33N 47°36' W 122°22'1 0.7
2014-Dec-10 03:33N 47°35' W 122°21'0 0.0
2014-Dec-10 02:33N 47°35' W 122°21'0 0.0
2014-Dec-10 01:33N 47°35' W 122°21'0 0.0
2014-Dec-10 00:33N 47°35' W 122°21'0 0.0
2014-Dec-09 23:33N 47°35' W 122°21'1010.3
2014-Dec-09 22:34N 47°45' W 122°25'1212.1
2014-Dec-09 21:33N 47°57' W 122°20'5 4.9
2014-Dec-09 20:33N 47°59' W 122°13'0 0.0
2014-Dec-09 19:32N 47°59' W 122°13'0 0.0
2014-Dec-09 18:33N 47°59' W 122°13'0 0.0
2014-Dec-09 17:33N 47°59' W 122°13'  

Dump ship's entire track history